createdAt,value
2023-01-29T00:02:37.955Z,100305.75
2023-01-29T00:05:42.626Z,100302.56
2023-01-29T00:08:47.802Z,100298.41
2023-01-29T00:11:52.055Z,100298.00
2023-01-29T00:14:56.842Z,100311.84
2023-01-29T00:18:01.344Z,100316.72
2023-01-29T00:21:10.826Z,100320.78
2023-01-29T00:24:15.698Z,100320.19
2023-01-29T00:27:20.352Z,100312.13
2023-01-29T00:30:37.490Z,100316.31
2023-01-29T00:33:53.153Z,100321.53
2023-01-29T00:37:09.241Z,100331.06
2023-01-29T00:40:14.311Z,100324.44
2023-01-29T00:43:43.913Z,100321.63
2023-01-29T00:46:55.046Z,100317.34
2023-01-29T00:50:00.097Z,100312.50
2023-01-29T00:53:05.432Z,100323.50
2023-01-29T00:56:15.453Z,100320.13
2023-01-29T00:59:30.569Z,100315.72
2023-01-29T01:02:53.567Z,100325.94
2023-01-29T01:06:05.951Z,100330.47
2023-01-29T01:09:31.660Z,100325.53
2023-01-29T01:12:47.310Z,100330.41
2023-01-29T01:15:51.815Z,100323.16
2023-01-29T01:18:57.184Z,100328.25
2023-01-29T01:22:01.810Z,100341.53
2023-01-29T01:25:07.014Z,100338.16
2023-01-29T01:28:11.650Z,100330.56
2023-01-29T01:31:16.760Z,100336.69
2023-01-29T01:34:22.637Z,100332.97
2023-01-29T01:37:27.031Z,100342.41
2023-01-29T01:40:46.296Z,100339.78
2023-01-29T01:44:13.685Z,100351.91
2023-01-29T01:47:38.986Z,100348.47
2023-01-29T01:51:03.970Z,100355.84
2023-01-29T01:54:16.360Z,100340.53
2023-01-29T01:57:26.826Z,100346.03
2023-01-29T02:00:31.713Z,100356.44
2023-01-29T02:04:04.133Z,100355.47
2023-01-29T02:07:37.595Z,100368.63
2023-01-29T02:10:46.393Z,100362.22
2023-01-29T02:13:55.778Z,100362.06
2023-01-29T02:17:03.113Z,100369.59
2023-01-29T02:20:26.895Z,100364.69
2023-01-29T02:24:04.261Z,100366.63
2023-01-29T02:31:11.895Z,100373.19
2023-01-29T02:34:23.290Z,100388.25
2023-01-29T02:37:38.606Z,100386.59
2023-01-29T02:40:53.369Z,100399.78
2023-01-29T02:44:18.069Z,100407.59
2023-01-29T02:47:43.239Z,100414.66
2023-01-29T02:51:21.074Z,100416.75
2023-01-29T02:54:34.303Z,100421.66
2023-01-29T02:57:42.892Z,100421.56
2023-01-29T03:00:48.879Z,100426.34
2023-01-29T03:04:08.335Z,100415.94
2023-01-29T03:07:41.250Z,100423.44
2023-01-29T03:11:02.212Z,100417.13
2023-01-29T03:14:56.943Z,100430.25
2023-01-29T03:18:12.417Z,100444.38
2023-01-29T03:21:53.815Z,100436.50
2023-01-29T03:25:22.270Z,100434.00
2023-01-29T03:28:49.283Z,100445.09
2023-01-29T03:32:07.025Z,100448.13
2023-01-29T03:35:14.961Z,100453.00
2023-01-29T03:38:21.719Z,100456.72
2023-01-29T03:41:39.799Z,100462.56
2023-01-29T03:44:55.159Z,100465.56
2023-01-29T03:48:12.658Z,100458.81
2023-01-29T03:51:46.756Z,100466.19
2023-01-29T03:55:18.778Z,100471.16
2023-01-29T03:58:39.805Z,100482.88
2023-01-29T04:02:06.034Z,100483.56
2023-01-29T04:05:25.681Z,100476.09
2023-01-29T04:09:17.808Z,100496.00
2023-01-29T04:12:46.555Z,100482.69
2023-01-29T04:15:58.908Z,100476.66
2023-01-29T04:19:35.790Z,100493.22
2023-01-29T04:22:51.769Z,100500.63
2023-01-29T04:26:29.598Z,100506.88
2023-01-29T04:29:57.162Z,100494.91
2023-01-29T04:33:43.556Z,100507.03
2023-01-29T04:37:30.616Z,100508.75
2023-01-29T04:40:54.719Z,100505.06
2023-01-29T04:44:19.394Z,100512.38
2023-01-29T04:47:41.744Z,100509.94
2023-01-29T04:50:59.969Z,100529.38
2023-01-29T04:54:16.769Z,100515.50
2023-01-29T04:57:29.166Z,100514.72
2023-01-29T05:00:43.504Z,100539.97
2023-01-29T05:03:55.646Z,100538.75
2023-01-29T05:07:09.550Z,100539.88
2023-01-29T05:10:21.416Z,100551.63
2023-01-29T05:13:28.872Z,100553.19
2023-01-29T05:16:42.393Z,100551.75
2023-01-29T05:19:48.020Z,100564.91
2023-01-29T05:22:53.051Z,100574.84
2023-01-29T05:26:07.694Z,100579.00
2023-01-29T05:29:18.567Z,100583.78
2023-01-29T05:32:32.815Z,100590.56
2023-01-29T05:35:37.652Z,100596.25
2023-01-29T05:38:53.699Z,100601.38
2023-01-29T05:42:09.404Z,100585.59
2023-01-29T05:45:26.953Z,100588.47
2023-01-29T05:48:33.834Z,100609.47
2023-01-29T05:51:54.149Z,100592.38
2023-01-29T05:55:03.364Z,100602.06
2023-01-29T05:58:08.471Z,100603.75
2023-01-29T06:01:16.425Z,100608.00
2023-01-29T06:04:31.206Z,100602.38
2023-01-29T06:07:46.061Z,100612.78
2023-01-29T06:10:50.911Z,100605.41
2023-01-29T06:13:56.032Z,100614.13
2023-01-29T06:17:00.770Z,100617.84
2023-01-29T06:20:06.319Z,100627.84
2023-01-29T06:23:11.024Z,100622.28
2023-01-29T06:26:17.157Z,100622.06
2023-01-29T06:29:23.041Z,100628.66
2023-01-29T06:32:28.675Z,100642.13
2023-01-29T06:35:38.408Z,100637.66
2023-01-29T06:38:48.632Z,100650.53
2023-01-29T06:42:05.840Z,100637.09
2023-01-29T06:45:11.179Z,100647.56
2023-01-29T06:48:16.538Z,100640.03
2023-01-29T06:51:23.662Z,100654.97
2023-01-29T06:54:29.873Z,100654.94
2023-01-29T06:57:36.562Z,100645.94
2023-01-29T07:00:43.129Z,100656.75
2023-01-29T07:03:51.648Z,100653.00
2023-01-29T07:07:02.142Z,100662.13
2023-01-29T07:10:09.574Z,100645.75
2023-01-29T07:13:22.750Z,100656.53
2023-01-29T07:16:27.343Z,100653.09
2023-01-29T07:19:31.569Z,100661.78
2023-01-29T07:22:37.313Z,100665.81
2023-01-29T07:25:54.145Z,100663.34
2023-01-29T07:28:58.790Z,100657.03
2023-01-29T07:32:04.034Z,100656.25
2023-01-29T07:35:09.106Z,100644.50
2023-01-29T07:38:13.980Z,100682.13
2023-01-29T07:41:28.519Z,100664.41
2023-01-29T07:44:41.383Z,100656.88
2023-01-29T07:47:58.696Z,100659.56
2023-01-29T07:51:03.720Z,100666.81
2023-01-29T07:54:09.290Z,100674.16
2023-01-29T07:57:15.565Z,100690.50
2023-01-29T08:00:22.452Z,100694.34
2023-01-29T08:03:33.002Z,100687.84
2023-01-29T08:06:46.468Z,100684.25
2023-01-29T08:09:56.292Z,100684.25
2023-01-29T08:13:02.805Z,100691.34
2023-01-29T08:16:09.042Z,100690.16
2023-01-29T08:19:14.303Z,100682.41
2023-01-29T08:22:31.573Z,100682.59
2023-01-29T08:25:37.711Z,100688.44
2023-01-29T08:28:54.448Z,100683.25
2023-01-29T08:31:59.368Z,100697.31
2023-01-29T08:35:03.770Z,100703.00
2023-01-29T08:38:08.331Z,100688.88
2023-01-29T08:41:13.554Z,100689.69
2023-01-29T08:44:30.361Z,100687.53
2023-01-29T08:47:39.485Z,100682.06
2023-01-29T08:50:46.444Z,100689.84
2023-01-29T08:53:51.685Z,100691.31
2023-01-29T08:56:56.393Z,100696.47
2023-01-29T09:00:01.945Z,100679.06
2023-01-29T09:03:12.785Z,100681.22
2023-01-29T09:06:19.205Z,100694.94
2023-01-29T09:09:24.256Z,100702.13
2023-01-29T09:12:30.500Z,100686.25
2023-01-29T09:15:38.231Z,100702.06
2023-01-29T09:18:47.633Z,100692.88
2023-01-29T09:21:52.425Z,100702.47
2023-01-29T09:25:07.550Z,100711.94
2023-01-29T09:28:13.181Z,100694.41
2023-01-29T09:31:19.299Z,100715.47
2023-01-29T09:34:25.140Z,100713.16
2023-01-29T09:37:37.554Z,100722.22
2023-01-29T09:41:15.033Z,100719.59
2023-01-29T09:44:47.216Z,100713.03
2023-01-29T09:48:04.177Z,100728.63
2023-01-29T09:51:24.644Z,100712.63
2023-01-29T09:54:49.604Z,100722.88
2023-01-29T09:58:13.020Z,100724.09
2023-01-29T10:01:37.885Z,100723.63
2023-01-29T10:09:16.952Z,100733.34
2023-01-29T10:12:49.924Z,100732.25
2023-01-29T10:16:19.168Z,100745.00
2023-01-29T10:19:35.443Z,100734.66
2023-01-29T10:22:58.162Z,100735.13
2023-01-29T10:26:05.274Z,100730.38
2023-01-29T10:29:18.941Z,100750.09
2023-01-29T10:32:27.188Z,100750.81
2023-01-29T10:39:31.693Z,100750.75
2023-01-29T10:42:57.693Z,100758.53
2023-01-29T10:46:14.118Z,100758.81
2023-01-29T10:49:38.006Z,100760.38
2023-01-29T10:53:09.756Z,100756.84
2023-01-29T10:56:48.567Z,100769.47
2023-01-29T11:00:17.280Z,100761.28
2023-01-29T11:03:29.187Z,100763.09
2023-01-29T11:06:36.205Z,100775.69
2023-01-29T11:09:53.621Z,100771.41
2023-01-29T11:13:01.048Z,100772.72
2023-01-29T11:16:06.868Z,100779.59
2023-01-29T11:19:18.614Z,100779.00
2023-01-29T11:22:30.511Z,100785.13
2023-01-29T11:25:35.349Z,100793.25
2023-01-29T11:28:47.780Z,100804.56
2023-01-29T11:32:02.029Z,100803.84
2023-01-29T11:35:15.870Z,100811.53
2023-01-29T11:38:24.244Z,100814.06
2023-01-29T11:41:30.735Z,100805.00
2023-01-29T11:44:42.905Z,100831.72
2023-01-29T11:47:53.647Z,100809.69
2023-01-29T11:51:01.193Z,100815.69
2023-01-29T11:54:20.410Z,100819.78
2023-01-29T11:57:29.763Z,100811.66
2023-01-29T12:00:42.364Z,100822.97
2023-01-29T12:03:54.708Z,100827.25
2023-01-29T12:07:18.693Z,100834.13
2023-01-29T12:10:41.653Z,100829.34
2023-01-29T12:13:55.440Z,100832.75
2023-01-29T12:17:12.814Z,100843.44
2023-01-29T12:20:32.315Z,100845.44
2023-01-29T12:24:12.562Z,100853.38
2023-01-29T12:27:36.926Z,100849.53
2023-01-29T12:31:08.284Z,100856.84
2023-01-29T12:34:25.637Z,100853.31
2023-01-29T12:37:32.799Z,100863.72
2023-01-29T12:40:49.039Z,100864.66
2023-01-29T12:44:16.781Z,100859.78
2023-01-29T12:47:42.011Z,100847.94
2023-01-29T12:50:55.753Z,100862.31
2023-01-29T12:54:22.158Z,100853.66
2023-01-29T12:57:56.422Z,100859.13
2023-01-29T13:01:43.112Z,100862.69
2023-01-29T13:08:52.817Z,100859.28
2023-01-29T13:12:17.842Z,100860.59
2023-01-29T13:15:39.129Z,100864.72
2023-01-29T13:23:41.136Z,100863.34
2023-01-29T13:26:48.753Z,100872.09
2023-01-29T13:29:55.241Z,100870.09
2023-01-29T13:33:10.260Z,100869.09
2023-01-29T13:36:24.465Z,100861.31
2023-01-29T13:39:41.224Z,100873.47
2023-01-29T13:43:00.234Z,100877.63
2023-01-29T13:46:13.955Z,100877.00
2023-01-29T13:49:44.190Z,100884.00
2023-01-29T13:52:55.322Z,100886.44
2023-01-29T13:56:29.902Z,100890.47
2023-01-29T13:59:55.826Z,100879.50
2023-01-29T14:03:12.357Z,100888.16
2023-01-29T14:06:52.564Z,100877.53
2023-01-29T14:10:16.153Z,100882.28
2023-01-29T14:13:21.992Z,100886.72
2023-01-29T14:16:36.379Z,100888.09
2023-01-29T14:19:49.636Z,100879.38
2023-01-29T14:22:58.307Z,100882.75
2023-01-29T14:26:20.257Z,100879.56
2023-01-29T14:29:34.678Z,100873.69
2023-01-29T14:32:48.074Z,100885.84
2023-01-29T14:35:57.803Z,100896.94
2023-01-29T14:39:22.102Z,100881.72
2023-01-29T14:42:36.926Z,100881.47
2023-01-29T14:45:49.169Z,100882.53
2023-01-29T14:48:58.730Z,100881.34
2023-01-29T14:52:04.616Z,100875.78
2023-01-29T14:55:31.384Z,100873.28
2023-01-29T14:58:56.306Z,100881.88
2023-01-29T15:06:07.045Z,100881.09
2023-01-29T15:09:22.073Z,100881.53
2023-01-29T15:12:32.147Z,100884.78
2023-01-29T15:15:52.798Z,100879.31
2023-01-29T15:19:20.101Z,100870.97
2023-01-29T15:22:30.808Z,100875.84
2023-01-29T15:25:51.173Z,100878.25
2023-01-29T15:29:07.703Z,100876.50
2023-01-29T15:32:39.954Z,100867.09
2023-01-29T15:36:06.698Z,100877.69
2023-01-29T15:39:14.246Z,100878.84
2023-01-29T15:42:26.230Z,100871.94
2023-01-29T15:45:36.093Z,100877.97
2023-01-29T15:48:52.608Z,100881.47
2023-01-29T15:52:10.193Z,100890.84
2023-01-29T15:55:17.419Z,100886.13
2023-01-29T15:58:28.848Z,100877.59
2023-01-29T16:01:33.433Z,100871.88
2023-01-29T16:04:38.683Z,100883.09
2023-01-29T16:07:45.263Z,100878.78
2023-01-29T16:11:05.847Z,100883.47
2023-01-29T16:14:18.003Z,100879.91
2023-01-29T16:17:35.964Z,100886.03
2023-01-29T16:20:46.277Z,100881.25
2023-01-29T16:24:01.686Z,100886.56
2023-01-29T16:27:15.748Z,100885.66
2023-01-29T16:30:28.312Z,100897.56
2023-01-29T16:33:39.414Z,100901.66
2023-01-29T16:36:52.844Z,100899.63
2023-01-29T16:40:00.680Z,100904.31
2023-01-29T16:43:28.434Z,100894.34
2023-01-29T16:46:39.892Z,100900.00
2023-01-29T16:49:56.567Z,100901.41
2023-01-29T16:53:08.267Z,100907.28
2023-01-29T16:56:30.113Z,100893.22
2023-01-29T16:59:43.975Z,100914.94
2023-01-29T17:02:54.982Z,100899.72
2023-01-29T17:06:11.664Z,100919.31
2023-01-29T17:09:31.843Z,100920.03
2023-01-29T17:12:39.595Z,100926.59
2023-01-29T17:15:48.393Z,100926.13
2023-01-29T17:18:54.061Z,100931.13
2023-01-29T17:22:00.437Z,100937.19
2023-01-29T17:25:07.186Z,100948.38
2023-01-29T17:28:22.474Z,100950.94
2023-01-29T17:31:28.161Z,100943.97
2023-01-29T17:34:32.862Z,100950.28
2023-01-29T17:37:37.980Z,100954.59
2023-01-29T17:40:58.679Z,100954.16
2023-01-29T17:44:08.537Z,100963.00
2023-01-29T17:47:15.468Z,100955.44
2023-01-29T17:50:28.350Z,100964.59
2023-01-29T17:53:47.751Z,100965.84
2023-01-29T17:57:03.077Z,100961.63
2023-01-29T18:00:30.132Z,100959.59
2023-01-29T18:03:44.947Z,100964.88
2023-01-29T18:13:26.302Z,100970.34
2023-01-29T18:16:41.248Z,100974.31
2023-01-29T18:19:49.365Z,100971.72
2023-01-29T18:22:55.871Z,100971.91
2023-01-29T18:26:06.524Z,100967.88
2023-01-29T18:29:11.255Z,100969.41
2023-01-29T18:32:22.495Z,100983.34
2023-01-29T18:35:32.389Z,100983.19
2023-01-29T18:38:41.498Z,100978.09
2023-01-29T18:41:46.623Z,100981.66
2023-01-29T18:44:51.447Z,100986.97
2023-01-29T18:47:58.129Z,100987.22
2023-01-29T18:51:12.861Z,100989.16
2023-01-29T18:54:18.836Z,100986.28
2023-01-29T18:58:27.239Z,100980.53
2023-01-29T19:01:02.366Z,100992.63
2023-01-29T19:04:16.025Z,100985.78
2023-01-29T19:07:21.408Z,100988.25
2023-01-29T19:10:36.954Z,100991.97
2023-01-29T19:13:46.513Z,100981.72
2023-01-29T19:16:51.543Z,100990.78
2023-01-29T19:20:10.146Z,100981.63
2023-01-29T19:23:16.104Z,100996.56
2023-01-29T19:26:20.778Z,101003.19
2023-01-29T19:29:25.479Z,101005.06
2023-01-29T19:32:30.556Z,101009.56
2023-01-29T19:35:35.011Z,101013.59
2023-01-29T19:38:40.317Z,101014.66
2023-01-29T19:41:49.601Z,101025.06
2023-01-29T19:45:05.939Z,101017.38
2023-01-29T19:48:10.291Z,101022.16
2023-01-29T19:51:19.230Z,101016.78
2023-01-29T19:54:23.925Z,101022.34
2023-01-29T19:57:31.029Z,101026.28
2023-01-29T20:00:46.117Z,101020.41
2023-01-29T20:03:51.852Z,101018.88
2023-01-29T20:06:56.204Z,101029.41
2023-01-29T20:10:00.335Z,101032.69
2023-01-29T20:13:06.532Z,101034.03
2023-01-29T20:16:11.469Z,101022.69
2023-01-29T20:19:16.319Z,101023.63
2023-01-29T20:22:21.273Z,101026.44
2023-01-29T20:25:25.827Z,101045.22
2023-01-29T20:28:30.441Z,101035.03
2023-01-29T20:31:39.894Z,101040.19
2023-01-29T20:34:50.013Z,101043.94
2023-01-29T20:37:54.568Z,101040.91
2023-01-29T20:41:08.413Z,101042.06
2023-01-29T20:44:22.623Z,101048.31
2023-01-29T20:47:29.597Z,101042.91
2023-01-29T20:50:35.066Z,101040.66
2023-01-29T20:53:41.539Z,101045.44
2023-01-29T20:56:56.397Z,101033.13
2023-01-29T21:00:01.467Z,101048.66
2023-01-29T21:03:15.816Z,101055.06
2023-01-29T21:06:30.857Z,101056.09
2023-01-29T21:09:35.277Z,101053.38
2023-01-29T21:12:42.320Z,101052.97
2023-01-29T21:15:56.974Z,101048.72
2023-01-29T21:19:02.155Z,101058.22
2023-01-29T21:22:06.587Z,101055.34
2023-01-29T21:25:11.643Z,101037.47
2023-01-29T21:28:21.641Z,101050.16
2023-01-29T21:31:31.298Z,101048.28
2023-01-29T21:34:41.852Z,101040.91
2023-01-29T21:37:51.303Z,101048.38
2023-01-29T21:41:09.138Z,101051.66
2023-01-29T21:44:14.119Z,101053.50
2023-01-29T21:47:19.126Z,101046.31
2023-01-29T21:50:23.590Z,101045.59
2023-01-29T21:53:27.683Z,101066.19
2023-01-29T21:56:32.629Z,101062.44
2023-01-29T21:59:37.101Z,101054.84
2023-01-29T22:02:42.602Z,101057.03
2023-01-29T22:05:46.993Z,101061.78
2023-01-29T22:08:51.677Z,101064.09
2023-01-29T22:11:56.598Z,101068.03
2023-01-29T22:15:01.716Z,101063.97
2023-01-29T22:18:16.851Z,101070.03
2023-01-29T22:21:22.049Z,101068.09
2023-01-29T22:24:36.528Z,101069.03
2023-01-29T22:27:41.043Z,101078.22
2023-01-29T22:30:50.908Z,101074.91
2023-01-29T22:33:57.898Z,101083.84
2023-01-29T22:37:08.272Z,101085.59
2023-01-29T22:40:13.589Z,101082.97
2023-01-29T22:43:18.192Z,101094.53
2023-01-29T22:46:32.372Z,101094.00
2023-01-29T22:49:41.984Z,101084.63
2023-01-29T22:52:56.358Z,101096.28
2023-01-29T22:56:01.083Z,101095.72
2023-01-29T22:59:05.588Z,101096.09
2023-01-29T23:02:11.753Z,101091.38
2023-01-29T23:05:17.638Z,101087.69
2023-01-29T23:08:22.440Z,101095.47
2023-01-29T23:11:27.488Z,101096.69
2023-01-29T23:14:32.345Z,101107.69
2023-01-29T23:17:37.370Z,101114.41
2023-01-29T23:20:47.060Z,101113.31
2023-01-29T23:23:52.884Z,101106.50
2023-01-29T23:27:16.651Z,101109.50
2023-01-29T23:30:21.036Z,101116.66
2023-01-29T23:33:35.962Z,101105.97
2023-01-29T23:36:40.661Z,101098.31
2023-01-29T23:39:45.618Z,101103.41
2023-01-29T23:42:50.492Z,101102.50
2023-01-29T23:45:59.709Z,101098.38
2023-01-29T23:49:05.174Z,101108.56
2023-01-29T23:52:15.322Z,101096.09
2023-01-29T23:55:20.229Z,101105.13
2023-01-29T23:58:26.001Z,101094.53
